Time;durP1;ratioP1;P1;durP2;ratioP2;P2;SDS_P1;SDS_P2;PMS_P1;PMS_P2;Temp;Humidity;BMP_temperature;BMP_pressure;BME280_temperature;BME280_humidity;BME280_pressure;Samples;Min_cycle;Max_cycle;Signal;HPM_P1;HPM_P2
2024/01/15 00:00:01;;;;;;;;;;;-4.70;99.90;;;;;;5096479;28;19920;-67
2024/01/15 00:02:27;;;;;;;;;;;-4.70;99.90;;;;;;5099796;28;19992;-67
2024/01/15 00:04:54;;;;;;;;;;;-4.60;99.90;;;;;;5100748;28;20168;-67
2024/01/15 00:07:20;;;;;;;;;;;-4.60;99.90;;;;;;5097401;28;19926;-67
2024/01/15 00:09:47;;;;;;;;;;;-4.60;99.90;;;;;;5097388;28;19995;-68
2024/01/15 00:12:15;;;;;;;;;;;-4.60;99.90;;;;;;5096568;28;19999;-67
2024/01/15 00:14:42;;;;;;;;;;;-4.60;99.90;;;;;;5107217;28;19958;-67
2024/01/15 00:17:08;;;;;;;;;;;-4.50;99.90;;;;;;5119259;28;20201;-67
2024/01/15 00:19:35;;;;;;;;;;;-4.60;99.90;;;;;;5117409;28;19983;-66
2024/01/15 00:22:01;;;;;;;;;;;-4.50;99.90;;;;;;5117104;28;19963;-67
2024/01/15 00:24:28;;;;;;;;;;;-4.50;99.90;;;;;;5123591;28;19920;-66
2024/01/15 00:26:55;;;;;;;;;;;-4.50;99.90;;;;;;5122134;28;19920;-67
2024/01/15 00:29:23;;;;;;;;;;;-4.50;99.90;;;;;;5113474;28;19955;-66
2024/01/15 00:31:50;;;;;;;;;;;-4.40;99.90;;;;;;5123609;28;19962;-68
2024/01/15 00:34:16;;;;;;;;;;;-4.40;99.90;;;;;;5115744;28;20156;-67
2024/01/15 00:36:43;;;;;;;;;;;-4.40;99.90;;;;;;5122370;28;20186;-67
2024/01/15 00:39:10;;;;;;;;;;;-4.40;99.90;;;;;;5127186;28;20155;-68
2024/01/15 00:41:37;;;;;;;;;;;-4.30;99.90;;;;;;5125122;28;19920;-66
2024/01/15 00:44:04;;;;;;;;;;;-4.30;99.90;;;;;;5115829;28;19951;-66
2024/01/15 00:46:32;;;;;;;;;;;-4.30;99.90;;;;;;5125477;28;20228;-67
2024/01/15 00:48:58;;;;;;;;;;;-4.20;99.90;;;;;;5125837;28;19959;-67
2024/01/15 00:51:25;;;;;;;;;;;-4.20;99.90;;;;;;5121459;28;19992;-67
2024/01/15 00:53:51;;;;;;;;;;;-4.10;99.90;;;;;;5127651;28;19920;-68
2024/01/15 00:56:18;;;;;;;;;;;-4.10;99.90;;;;;;5124201;28;19951;-67
2024/01/15 00:58:45;;;;;;;;;;;-4.10;99.90;;;;;;5120234;28;19978;-67
2024/01/15 01:01:11;;;;;;;;;;;-4.10;99.90;;;;;;5110032;28;20217;-67
2024/01/15 01:03:39;;;;;;;;;;;-4.10;99.90;;;;;;5118351;28;19919;-67
2024/01/15 01:06:06;;;;;;;;;;;-4.10;99.90;;;;;;5119901;28;19962;-67
2024/01/15 01:08:32;;;;;;;;;;;-4.10;99.90;;;;;;5120465;28;20273;-67
2024/01/15 01:10:59;;;;;;;;;;;-4.10;99.90;;;;;;5121229;28;19988;-67
2024/01/15 01:13:26;;;;;;;;;;;-4.00;99.90;;;;;;5117136;28;19986;-67
2024/01/15 01:15:52;;;;;;;;;;;-4.00;99.90;;;;;;5120045;28;19991;-67
2024/01/15 01:18:19;;;;;;;;;;;-4.00;99.90;;;;;;5126571;28;19926;-67
2024/01/15 01:20:47;;;;;;;;;;;-4.00;99.90;;;;;;5124019;28;19979;-67
2024/01/15 01:23:13;;;;;;;;;;;-3.90;99.90;;;;;;5119447;28;19955;-67
2024/01/15 01:25:40;;;;;;;;;;;-3.90;99.90;;;;;;5124121;28;19987;-67
2024/01/15 01:28:07;;;;;;;;;;;-3.90;99.90;;;;;;5122899;28;19924;-67
2024/01/15 01:30:33;;;;;;;;;;;-3.90;99.90;;;;;;5117592;28;20260;-67
2024/01/15 01:33:00;;;;;;;;;;;-3.80;99.90;;;;;;5122964;28;20228;-67
2024/01/15 01:35:26;;;;;;;;;;;-3.80;99.90;;;;;;5116514;28;19962;-67
2024/01/15 01:37:54;;;;;;;;;;;-3.80;99.90;;;;;;5123540;28;20102;-67
2024/01/15 01:40:21;;;;;;;;;;;-3.80;99.90;;;;;;5117802;28;19963;-66
2024/01/15 01:42:48;;;;;;;;;;;-3.80;99.90;;;;;;5116291;28;19940;-67
2024/01/15 01:45:15;;;;;;;;;;;-3.80;99.90;;;;;;5123925;28;19923;-67
2024/01/15 01:47:42;;;;;;;;;;;-3.70;99.90;;;;;;5122566;28;19987;-68
2024/01/15 01:50:09;;;;;;;;;;;-3.70;99.90;;;;;;5125086;28;19986;-67
2024/01/15 01:52:36;;;;;;;;;;;-3.70;99.90;;;;;;5123870;28;20260;-67
2024/01/15 01:55:05;;;;;;;;;;;-3.70;99.90;;;;;;5125938;28;20098;-67
2024/01/15 01:57:33;;;;;;;;;;;-3.70;99.90;;;;;;5121603;28;19920;-67
2024/01/15 02:00:00;;;;;;;;;;;-3.70;99.90;;;;;;5115427;28;19928;-67
2024/01/15 02:02:27;;;;;;;;;;;-3.70;99.90;;;;;;5121850;28;20108;-67
2024/01/15 02:04:53;;;;;;;;;;;-3.70;99.90;;;;;;5116937;28;20065;-67
2024/01/15 02:07:20;;;;;;;;;;;-3.70;99.90;;;;;;5112462;28;20020;-69
2024/01/15 02:09:47;;;;;;;;;;;-3.70;99.90;;;;;;5123049;28;19991;-68
2024/01/15 02:12:15;;;;;;;;;;;-3.60;99.90;;;;;;5125627;28;19955;-68
2024/01/15 02:14:41;;;;;;;;;;;-3.60;99.90;;;;;;5119359;28;19958;-67
2024/01/15 02:17:08;;;;;;;;;;;-3.60;99.90;;;;;;5111452;28;19995;-68
2024/01/15 02:19:34;;;;;;;;;;;-3.60;99.90;;;;;;5117868;28;20107;-66
2024/01/15 02:22:01;;;;;;;;;;;-3.60;99.90;;;;;;5123735;28;19986;-67
2024/01/15 02:24:29;;;;;;;;;;;-3.60;99.90;;;;;;5123034;28;20128;-67
2024/01/15 02:26:56;;;;;;;;;;;-3.60;99.90;;;;;;5125066;28;20228;-68
2024/01/15 02:29:23;;;;;;;;;;;-3.50;99.90;;;;;;5124363;28;19958;-66
2024/01/15 02:31:49;;;;;;;;;;;-3.50;99.90;;;;;;5122242;28;19954;-67
2024/01/15 02:34:16;;;;;;;;;;;-3.50;99.90;;;;;;5124346;28;19934;-67
2024/01/15 02:36:43;;;;;;;;;;;-3.50;99.90;;;;;;5116388;28;19983;-68
2024/01/15 02:39:09;;;;;;;;;;;-3.50;99.90;;;;;;5121789;28;19920;-67
2024/01/15 02:41:37;;;;;;;;;;;-3.50;99.90;;;;;;5124852;28;20217;-67
2024/01/15 02:44:04;;;;;;;;;;;-3.50;99.90;;;;;;5115507;28;19920;-67
2024/01/15 02:46:31;;;;;;;;;;;-3.50;99.90;;;;;;5121305;28;19954;-67
2024/01/15 02:48:57;;;;;;;;;;;-3.50;99.90;;;;;;5121707;28;19995;-67
2024/01/15 02:51:24;;;;;;;;;;;-3.40;99.90;;;;;;5106732;28;19948;-67
2024/01/15 02:53:51;;;;;;;;;;;-3.40;99.90;;;;;;5121919;28;19954;-67
2024/01/15 02:56:17;;;;;;;;;;;-3.40;99.90;;;;;;5120727;28;20251;-66
2024/01/15 02:58:45;;;;;;;;;;;-3.40;99.90;;;;;;5123806;28;19991;-68
2024/01/15 03:01:12;;;;;;;;;;;-3.30;99.90;;;;;;5116734;28;19950;-67
2024/01/15 03:03:40;;;;;;;;;;;-3.30;99.90;;;;;;5118900;28;19983;-70
2024/01/15 03:06:07;;;;;;;;;;;-3.30;99.90;;;;;;5119694;28;19959;-67
2024/01/15 03:08:35;;;;;;;;;;;-3.30;99.90;;;;;;5119671;28;20242;-67
2024/01/15 03:11:01;;;;;;;;;;;-3.30;99.90;;;;;;5122183;28;19957;-68
2024/01/15 03:13:28;;;;;;;;;;;-3.30;99.90;;;;;;5123186;28;19920;-67
2024/01/15 03:15:56;;;;;;;;;;;-3.30;99.90;;;;;;5121465;28;19927;-67
2024/01/15 03:18:23;;;;;;;;;;;-3.30;99.90;;;;;;5112909;28;19928;-66
2024/01/15 03:20:49;;;;;;;;;;;-3.30;99.90;;;;;;5119111;28;19919;-67
2024/01/15 03:23:16;;;;;;;;;;;-3.30;99.90;;;;;;5122599;28;19939;-67
2024/01/15 03:25:42;;;;;;;;;;;-3.20;99.90;;;;;;5124057;28;19919;-67
2024/01/15 03:28:09;;;;;;;;;;;-3.20;99.90;;;;;;5121822;28;19992;-67
2024/01/15 03:30:36;;;;;;;;;;;-3.20;99.90;;;;;;5119823;28;19928;-68
2024/01/15 03:33:04;;;;;;;;;;;-3.20;99.90;;;;;;5123808;28;19987;-68
2024/01/15 03:35:30;;;;;;;;;;;-3.10;99.90;;;;;;5116773;28;19952;-67
2024/01/15 03:37:57;;;;;;;;;;;-3.10;99.90;;;;;;5118327;28;20132;-67
2024/01/15 03:40:24;;;;;;;;;;;-3.10;99.90;;;;;;5121760;28;19920;-67
2024/01/15 03:42:50;;;;;;;;;;;-3.10;99.90;;;;;;5123941;28;19930;-67
2024/01/15 03:45:17;;;;;;;;;;;-3.00;99.90;;;;;;5118415;28;19919;-70
2024/01/15 03:47:43;;;;;;;;;;;-3.00;99.90;;;;;;5115667;28;19983;-67
2024/01/15 03:50:11;;;;;;;;;;;-3.00;99.90;;;;;;5123590;28;19919;-67
2024/01/15 03:52:38;;;;;;;;;;;-3.00;99.90;;;;;;5121915;28;19966;-67
2024/01/15 03:55:05;;;;;;;;;;;-3.00;99.90;;;;;;5116058;28;20117;-67
2024/01/15 03:57:32;;;;;;;;;;;-3.00;99.90;;;;;;5124053;28;19986;-69
2024/01/15 03:59:59;;;;;;;;;;;-3.00;99.90;;;;;;5117104;28;19982;-67
2024/01/15 04:02:25;;;;;;;;;;;-2.90;99.90;;;;;;5117090;28;19920;-67
2024/01/15 04:04:52;;;;;;;;;;;-2.90;99.90;;;;;;5124011;28;19967;-66
2024/01/15 04:07:20;;;;;;;;;;;-2.90;99.90;;;;;;5121218;28;19982;-67
2024/01/15 04:09:46;;;;;;;;;;;-2.90;99.90;;;;;;5123047;28;19959;-67
2024/01/15 04:12:13;;;;;;;;;;;-2.90;99.90;;;;;;5127752;28;19941;-67
2024/01/15 04:14:40;;;;;;;;;;;-2.90;99.90;;;;;;5113510;28;19934;-67
2024/01/15 04:17:06;;;;;;;;;;;-2.90;99.90;;;;;;5117074;28;19920;-67
2024/01/15 04:19:33;;;;;;;;;;;-2.90;99.90;;;;;;5126862;28;19919;-67
2024/01/15 04:21:59;;;;;;;;;;;-2.90;99.90;;;;;;5125359;28;19920;-67
2024/01/15 04:24:27;;;;;;;;;;;-2.90;99.90;;;;;;5114619;28;19919;-67
2024/01/15 04:26:54;;;;;;;;;;;-2.90;99.90;;;;;;5119768;28;19932;-66
2024/01/15 04:29:21;;;;;;;;;;;-2.90;99.90;;;;;;5123645;28;19990;-69
2024/01/15 04:31:47;;;;;;;;;;;-2.90;99.90;;;;;;5121719;28;19920;-67
2024/01/15 04:34:14;;;;;;;;;;;-2.90;99.90;;;;;;5124307;28;19991;-68
2024/01/15 04:36:41;;;;;;;;;;;-2.80;99.90;;;;;;5125757;28;19920;-67
2024/01/15 04:39:08;;;;;;;;;;;-2.80;99.90;;;;;;5124717;28;19920;-67
2024/01/15 04:41:36;;;;;;;;;;;-2.80;99.90;;;;;;5125907;28;20155;-67
2024/01/15 04:44:02;;;;;;;;;;;-2.80;99.90;;;;;;5119191;28;19974;-67
2024/01/15 04:46:29;;;;;;;;;;;-2.70;99.90;;;;;;5125477;28;20182;-67
2024/01/15 04:48:55;;;;;;;;;;;-2.70;99.90;;;;;;5117679;28;19920;-67
2024/01/15 04:51:22;;;;;;;;;;;-2.70;99.90;;;;;;5125395;28;20158;-67
2024/01/15 04:53:49;;;;;;;;;;;-2.70;99.90;;;;;;5121706;28;19951;-67
2024/01/15 04:56:15;;;;;;;;;;;-2.70;99.90;;;;;;5120988;28;19983;-67
2024/01/15 04:58:43;;;;;;;;;;;-2.70;99.90;;;;;;5126613;28;19983;-67
2024/01/15 05:01:10;;;;;;;;;;;-2.70;99.90;;;;;;5117869;28;19966;-68
2024/01/15 05:03:37;;;;;;;;;;;-2.60;99.90;;;;;;5125559;28;19927;-67
2024/01/15 05:06:03;;;;;;;;;;;-2.60;99.90;;;;;;5124807;28;19924;-67
2024/01/15 05:08:30;;;;;;;;;;;-2.60;99.90;;;;;;5125305;28;19955;-67
2024/01/15 05:10:57;;;;;;;;;;;-2.60;99.90;;;;;;5119924;28;19921;-67
2024/01/15 05:13:23;;;;;;;;;;;-2.60;99.90;;;;;;5123671;28;20388;-68
2024/01/15 05:15:51;;;;;;;;;;;-2.50;99.90;;;;;;5121179;28;20003;-67
2024/01/15 05:18:18;;;;;;;;;;;-2.60;99.90;;;;;;5122463;28;19956;-69
2024/01/15 05:20:45;;;;;;;;;;;-2.60;99.90;;;;;;5117155;28;19927;-67
2024/01/15 05:23:11;;;;;;;;;;;-2.50;99.90;;;;;;5125042;28;19954;-67
2024/01/15 05:25:38;;;;;;;;;;;-2.50;99.90;;;;;;5113163;28;19994;-66
2024/01/15 05:28:05;;;;;;;;;;;-2.50;99.90;;;;;;5115300;28;20190;-67
2024/01/15 05:30:32;;;;;;;;;;;-2.50;99.90;;;;;;5120250;28;19987;-66
2024/01/15 05:33:01;;;;;;;;;;;-2.50;99.90;;;;;;5124497;28;19978;-68
2024/01/15 05:35:27;;;;;;;;;;;-2.50;99.90;;;;;;5122080;28;19924;-67
2024/01/15 05:37:54;;;;;;;;;;;-2.40;99.90;;;;;;5121427;28;19983;-72
2024/01/15 05:40:20;;;;;;;;;;;-2.40;99.90;;;;;;5116311;28;19919;-67
2024/01/15 05:42:47;;;;;;;;;;;-2.40;99.90;;;;;;5099701;28;19924;-66
2024/01/15 05:45:14;;;;;;;;;;;-2.40;99.90;;;;;;5099846;28;19927;-67
2024/01/15 05:47:40;;;;;;;;;;;-2.40;99.90;;;;;;5102755;28;19919;-67
2024/01/15 05:50:09;;;;;;;;;;;-2.40;99.90;;;;;;5100220;28;19924;-68
2024/01/15 05:52:35;;;;;;;;;;;-2.40;99.90;;;;;;5100898;28;19927;-68
2024/01/15 05:55:02;;;;;;;;;;;-2.40;99.90;;;;;;5099646;28;19992;-67
2024/01/15 05:57:29;;;;;;;;;;;-2.40;99.90;;;;;;5106072;28;19962;-67
2024/01/15 05:59:55;;;;;;;;;;;-2.40;99.90;;;;;;5121775;28;19926;-68
2024/01/15 06:02:22;;;;;;;;;;;-2.40;99.90;;;;;;5118147;28;19983;-67
2024/01/15 06:04:49;;;;;;;;;;;-2.30;99.90;;;;;;5116787;28;19919;-68
2024/01/15 06:07:17;;;;;;;;;;;-2.30;99.90;;;;;;5118426;28;19920;-67
2024/01/15 06:09:43;;;;;;;;;;;-2.30;99.90;;;;;;5118924;28;19987;-66
2024/01/15 06:12:10;;;;;;;;;;;-2.30;99.90;;;;;;5110163;28;19920;-68
2024/01/15 06:14:37;;;;;;;;;;;-2.30;99.90;;;;;;5116576;28;19926;-69
2024/01/15 06:17:03;;;;;;;;;;;-2.30;99.90;;;;;;5117704;28;19943;-66
2024/01/15 06:19:30;;;;;;;;;;;-2.20;99.90;;;;;;5123262;28;20156;-67
2024/01/15 06:21:57;;;;;;;;;;;-2.30;99.90;;;;;;5111791;28;19927;-67
2024/01/15 06:24:25;;;;;;;;;;;-2.30;99.90;;;;;;5115478;28;19926;-67
2024/01/15 06:26:51;;;;;;;;;;;-2.20;99.90;;;;;;5117946;28;20245;-66
2024/01/15 06:29:18;;;;;;;;;;;-2.20;99.90;;;;;;5108283;28;20058;-68
2024/01/15 06:31:45;;;;;;;;;;;-2.20;99.90;;;;;;5100299;28;19935;-68
2024/01/15 06:34:11;;;;;;;;;;;-2.20;99.90;;;;;;5113653;28;19924;-71
2024/01/15 06:36:38;;;;;;;;;;;-2.20;99.90;;;;;;5117941;28;19920;-68
2024/01/15 06:39:05;;;;;;;;;;;-2.20;99.90;;;;;;5122564;28;19987;-67
2024/01/15 06:41:33;;;;;;;;;;;-2.20;99.90;;;;;;5121499;28;19987;-68
2024/01/15 06:43:59;;;;;;;;;;;-2.20;99.90;;;;;;5124484;28;19951;-67
2024/01/15 06:46:26;;;;;;;;;;;-2.10;99.90;;;;;;5124885;28;19983;-67
2024/01/15 06:48:53;;;;;;;;;;;-2.10;99.90;;;;;;5124717;28;19947;-68
2024/01/15 06:51:19;;;;;;;;;;;-2.10;99.90;;;;;;5124685;28;19978;-67
2024/01/15 06:53:46;;;;;;;;;;;-2.10;99.90;;;;;;5124393;28;19920;-71
2024/01/15 06:56:12;;;;;;;;;;;-2.10;99.90;;;;;;5124785;28;19983;-68
2024/01/15 06:58:41;;;;;;;;;;;-2.10;99.90;;;;;;5124822;28;19926;-67
2024/01/15 07:01:07;;;;;;;;;;;-2.10;99.90;;;;;;5124484;28;20288;-67
2024/01/15 07:03:34;;;;;;;;;;;-2.00;99.90;;;;;;5124487;28;20255;-68
2024/01/15 07:06:01;;;;;;;;;;;-2.00;99.90;;;;;;5124133;28;19920;-67
2024/01/15 07:08:27;;;;;;;;;;;-2.00;99.90;;;;;;5124155;28;19947;-67
2024/01/15 07:10:54;;;;;;;;;;;-2.00;99.90;;;;;;5123480;28;19927;-67
2024/01/15 07:13:20;;;;;;;;;;;-2.00;99.90;;;;;;5124181;28;19926;-68
2024/01/15 07:15:49;;;;;;;;;;;-2.10;99.90;;;;;;5123901;28;19920;-68
2024/01/15 07:18:15;;;;;;;;;;;-2.10;99.90;;;;;;5124185;28;19951;-67
2024/01/15 07:20:43;;;;;;;;;;;-2.00;99.90;;;;;;5124222;28;19951;-70
2024/01/15 07:23:09;;;;;;;;;;;-2.00;99.90;;;;;;5123725;28;20171;-68
2024/01/15 07:25:36;;;;;;;;;;;-2.00;99.90;;;;;;5123957;28;19920;-68
2024/01/15 07:28:03;;;;;;;;;;;-2.00;99.90;;;;;;5124026;28;19941;-68
2024/01/15 07:30:30;;;;;;;;;;;-2.00;99.90;;;;;;5124110;28;19920;-68
2024/01/15 07:32:58;;;;;;;;;;;-2.00;99.90;;;;;;5123764;28;19951;-68
2024/01/15 07:35:24;;;;;;;;;;;-1.90;99.90;;;;;;5123489;28;20546;-67
2024/01/15 07:37:51;;;;;;;;;;;-1.90;99.90;;;;;;5123551;28;19920;-68
2024/01/15 07:40:18;;;;;;;;;;;-1.90;99.90;;;;;;5123891;28;19919;-67
2024/01/15 07:42:44;;;;;;;;;;;-1.90;99.90;;;;;;5123955;28;19986;-68
2024/01/15 07:45:11;;;;;;;;;;;-1.90;99.90;;;;;;5122641;28;19955;-66
2024/01/15 07:47:38;;;;;;;;;;;-1.80;99.90;;;;;;5121089;27;19954;-68
2024/01/15 07:50:06;;;;;;;;;;;-1.80;99.90;;;;;;5121792;27;20090;-68
2024/01/15 07:52:33;;;;;;;;;;;-1.80;99.90;;;;;;5120025;28;19947;-70
2024/01/15 07:55:00;;;;;;;;;;;-1.80;99.90;;;;;;5122864;28;19966;-69
2024/01/15 07:57:27;;;;;;;;;;;-1.70;99.90;;;;;;5119538;28;19927;-67
2024/01/15 07:59:53;;;;;;;;;;;-1.70;99.90;;;;;;5118894;28;19951;-67
2024/01/15 08:02:21;;;;;;;;;;;-1.70;99.90;;;;;;5123532;28;20284;-67
2024/01/15 08:04:48;;;;;;;;;;;-1.70;99.90;;;;;;5120202;28;20217;-67
2024/01/15 08:07:16;;;;;;;;;;;-1.70;99.90;;;;;;5119688;28;19983;-67
2024/01/15 08:09:42;;;;;;;;;;;-1.70;99.90;;;;;;5122627;28;19984;-67
2024/01/15 08:12:09;;;;;;;;;;;-1.70;99.90;;;;;;5123314;28;19920;-67
2024/01/15 08:14:36;;;;;;;;;;;-1.70;99.90;;;;;;5112140;28;19926;-67
2024/01/15 08:17:03;;;;;;;;;;;-1.60;99.90;;;;;;5123558;28;19987;-67
2024/01/15 08:19:31;;;;;;;;;;;-1.60;99.90;;;;;;5123636;28;19958;-68
2024/01/15 08:21:57;;;;;;;;;;;-1.70;99.90;;;;;;5113551;28;20279;-70
2024/01/15 08:24:25;;;;;;;;;;;-1.60;99.90;;;;;;5120784;28;19926;-67
2024/01/15 08:26:52;;;;;;;;;;;-1.60;99.90;;;;;;5119125;28;19962;-68
2024/01/15 08:29:20;;;;;;;;;;;-1.60;99.90;;;;;;5123421;28;19919;-67
2024/01/15 08:31:47;;;;;;;;;;;-1.50;99.90;;;;;;5123321;28;20240;-68
2024/01/15 08:34:14;;;;;;;;;;;-1.50;99.90;;;;;;5123194;28;19958;-67
2024/01/15 08:36:41;;;;;;;;;;;-1.60;99.90;;;;;;5114542;28;19920;-70
2024/01/15 08:39:08;;;;;;;;;;;-1.60;99.90;;;;;;5121688;28;19926;-70
2024/01/15 08:41:36;;;;;;;;;;;-1.50;99.90;;;;;;5123421;28;19920;-69
2024/01/15 08:44:03;;;;;;;;;;;-1.60;99.90;;;;;;5123329;28;19994;-70
2024/01/15 08:46:30;;;;;;;;;;;-1.50;99.90;;;;;;5123309;28;19923;-68
2024/01/15 08:48:56;;;;;;;;;;;-1.60;99.90;;;;;;5123559;28;19983;-69
2024/01/15 08:51:23;;;;;;;;;;;-1.50;99.90;;;;;;5123482;28;19970;-68
2024/01/15 08:53:50;;;;;;;;;;;-1.50;99.90;;;;;;5120528;28;19920;-69
2024/01/15 08:56:16;;;;;;;;;;;-1.50;99.90;;;;;;5122905;28;19983;-68
2024/01/15 08:58:46;;;;;;;;;;;-1.50;99.90;;;;;;5114938;28;19920;-68
2024/01/15 09:01:12;;;;;;;;;;;-1.50;99.90;;;;;;5121337;28;20113;-69
2024/01/15 09:03:39;;;;;;;;;;;-1.50;99.90;;;;;;5126474;28;19959;-68
2024/01/15 09:06:06;;;;;;;;;;;-1.50;99.90;;;;;;5126239;28;20116;-68
2024/01/15 09:08:33;;;;;;;;;;;-1.50;99.90;;;;;;5121516;28;20278;-67
2024/01/15 09:11:02;;;;;;;;;;;-1.40;99.90;;;;;;5124535;28;19995;-69
2024/01/15 09:13:29;;;;;;;;;;;-1.40;99.90;;;;;;5120853;28;19920;-68
2024/01/15 09:15:57;;;;;;;;;;;-1.40;99.90;;;;;;5121920;28;19939;-67
2024/01/15 09:18:23;;;;;;;;;;;-1.30;99.90;;;;;;5120973;28;19958;-66
2024/01/15 09:20:50;;;;;;;;;;;-1.30;99.90;;;;;;5119711;28;20294;-65
2024/01/15 09:23:16;;;;;;;;;;;-1.30;99.90;;;;;;5125786;28;19932;-69
2024/01/15 09:25:43;;;;;;;;;;;-1.30;99.90;;;;;;5119568;28;19982;-70
2024/01/15 09:28:10;;;;;;;;;;;-1.30;99.90;;;;;;5120537;28;19927;-66
2024/01/15 09:30:37;;;;;;;;;;;-1.20;99.90;;;;;;5126461;28;20139;-68
2024/01/15 09:33:05;;;;;;;;;;;-1.20;99.90;;;;;;5115892;28;19927;-69
2024/01/15 09:35:31;;;;;;;;;;;-1.20;99.90;;;;;;5125861;28;19983;-68
2024/01/15 09:37:58;;;;;;;;;;;-1.20;99.90;;;;;;5125957;28;20221;-68
2024/01/15 09:40:26;;;;;;;;;;;-1.20;99.90;;;;;;5126264;28;19955;-69
2024/01/15 09:42:53;;;;;;;;;;;-1.20;99.90;;;;;;5126409;28;19965;-68
2024/01/15 09:45:19;;;;;;;;;;;-1.20;99.90;;;;;;5125918;28;19983;-68
2024/01/15 09:47:46;;;;;;;;;;;-1.20;99.90;;;;;;5126308;28;19971;-72
2024/01/15 09:50:15;;;;;;;;;;;-1.20;99.90;;;;;;5120519;28;19970;-68
2024/01/15 09:52:43;;;;;;;;;;;-1.30;99.90;;;;;;5118437;28;19920;-69
2024/01/15 09:55:10;;;;;;;;;;;-1.30;99.90;;;;;;5124253;28;20267;-68
2024/01/15 09:57:37;;;;;;;;;;;-1.20;99.90;;;;;;5125609;28;20003;-67
2024/01/15 10:00:05;;;;;;;;;;;-1.20;99.90;;;;;;5120165;28;20229;-69
2024/01/15 10:02:32;;;;;;;;;;;-1.20;99.90;;;;;;5125765;28;19951;-69
2024/01/15 10:04:58;;;;;;;;;;;-1.20;99.90;;;;;;5119699;28;19927;-68
2024/01/15 10:07:28;;;;;;;;;;;-1.20;99.90;;;;;;5122192;28;20016;-68
2024/01/15 10:09:54;;;;;;;;;;;-1.20;99.90;;;;;;5120677;28;19920;-68
2024/01/15 10:12:22;;;;;;;;;;;-1.30;99.90;;;;;;5116837;28;20278;-69
2024/01/15 10:14:49;;;;;;;;;;;-1.30;99.90;;;;;;5117977;28;19930;-68
2024/01/15 10:17:17;;;;;;;;;;;-1.30;99.90;;;;;;5117539;28;19927;-68
2024/01/15 10:19:43;;;;;;;;;;;-1.20;99.90;;;;;;5120218;28;19920;-68
2024/01/15 10:22:10;;;;;;;;;;;-1.20;99.90;;;;;;5125339;28;19990;-68
2024/01/15 10:24:38;;;;;;;;;;;-1.20;99.90;;;;;;5124690;28;19919;-68
2024/01/15 10:27:09;;;;;;;;;;;-1.20;99.90;;;;;;5115514;28;19920;-68
2024/01/15 10:29:36;;;;;;;;;;;-1.20;99.90;;;;;;5111281;28;19920;-70
2024/01/15 10:32:03;;;;;;;;;;;-1.10;99.90;;;;;;5125138;28;19920;-69
2024/01/15 10:34:31;;;;;;;;;;;-1.10;99.90;;;;;;5119711;28;19947;-71
2024/01/15 10:36:58;;;;;;;;;;;-1.00;99.90;;;;;;5124796;28;19951;-67
2024/01/15 10:39:24;;;;;;;;;;;-0.90;99.90;;;;;;5122099;28;20003;-69
2024/01/15 10:41:52;;;;;;;;;;;-0.90;99.90;;;;;;5120798;28;19990;-68
2024/01/15 10:44:19;;;;;;;;;;;-0.90;99.90;;;;;;5124374;28;19984;-71
2024/01/15 10:46:47;;;;;;;;;;;-0.90;99.90;;;;;;5124164;28;19927;-68
2024/01/15 10:49:13;;;;;;;;;;;-0.90;99.90;;;;;;5116358;28;19924;-68
2024/01/15 10:51:40;;;;;;;;;;;-0.90;99.90;;;;;;5124018;28;19995;-68
2024/01/15 10:54:10;;;;;;;;;;;-0.90;99.90;;;;;;5124205;28;19951;-67
2024/01/15 10:56:37;;;;;;;;;;;-0.80;99.90;;;;;;5123215;28;19965;-69
2024/01/15 10:59:07;;;;;;;;;;;-0.80;99.90;;;;;;5120536;28;19958;-68
2024/01/15 11:01:34;;;;;;;;;;;-0.90;99.90;;;;;;5124628;28;20172;-69
2024/01/15 11:04:01;;;;;;;;;;;-0.90;99.90;;;;;;5118711;28;19943;-71
2024/01/15 11:06:29;;;;;;;;;;;-1.00;99.90;;;;;;5119858;28;19936;-69
2024/01/15 11:08:56;;;;;;;;;;;-1.00;99.90;;;;;;5110931;28;19947;-68
2024/01/15 11:11:23;;;;;;;;;;;-1.10;99.90;;;;;;5117231;28;19939;-70
2024/01/15 11:13:51;;;;;;;;;;;-1.10;99.90;;;;;;5117790;28;19924;-68
2024/01/15 11:16:19;;;;;;;;;;;-1.10;99.90;;;;;;5123090;28;20121;-67
2024/01/15 11:19:00;;;;;;;;;;;-1.10;99.90;;;;;;5110603;28;19988;-68
2024/01/15 11:21:29;;;;;;;;;;;-1.20;99.90;;;;;;5119602;28;19959;-70
2024/01/15 11:23:59;;;;;;;;;;;-1.20;99.90;;;;;;5120496;28;20163;-69
2024/01/15 11:26:32;;;;;;;;;;;-1.20;99.90;;;;;;5120753;28;19951;-68
2024/01/15 11:29:00;;;;;;;;;;;-1.20;99.90;;;;;;5123362;28;20156;-70
2024/01/15 11:31:29;;;;;;;;;;;-1.20;99.90;;;;;;5123605;28;19969;-68
2024/01/15 11:33:56;;;;;;;;;;;-1.20;99.90;;;;;;5119147;28;20221;-69
2024/01/15 11:36:22;;;;;;;;;;;-1.20;99.90;;;;;;5123520;28;19920;-68
2024/01/15 11:38:48;;;;;;;;;;;-1.10;99.90;;;;;;5123729;28;19985;-70
2024/01/15 11:41:16;;;;;;;;;;;-1.10;99.90;;;;;;5123149;28;20288;-69
2024/01/15 11:43:43;;;;;;;;;;;-1.00;99.90;;;;;;5123889;28;20117;-70
2024/01/15 11:46:12;;;;;;;;;;;-1.00;99.90;;;;;;5123345;28;19924;-68
2024/01/15 11:48:44;;;;;;;;;;;-1.00;99.90;;;;;;5123322;28;20220;-68
2024/01/15 11:51:12;;;;;;;;;;;-0.90;99.90;;;;;;5121540;28;20160;-68
2024/01/15 11:53:44;;;;;;;;;;;-1.00;99.90;;;;;;5122165;28;19988;-68
2024/01/15 11:56:14;;;;;;;;;;;-1.00;99.90;;;;;;5123791;28;19947;-69
2024/01/15 11:58:41;;;;;;;;;;;-1.00;99.90;;;;;;5122748;28;20327;-68
2024/01/15 12:01:08;;;;;;;;;;;-1.00;99.90;;;;;;5123914;28;19987;-69
2024/01/15 12:03:34;;;;;;;;;;;-1.00;99.90;;;;;;5123558;28;19951;-69
2024/01/15 12:06:03;;;;;;;;;;;-1.00;99.90;;;;;;5123097;28;19955;-68
2024/01/15 12:08:29;;;;;;;;;;;-1.00;99.90;;;;;;5123638;28;19970;-69
2024/01/15 12:10:56;;;;;;;;;;;-1.00;99.90;;;;;;5123896;28;20168;-68
2024/01/15 12:13:23;;;;;;;;;;;-1.00;99.90;;;;;;5120353;28;19926;-69
2024/01/15 12:15:50;;;;;;;;;;;-1.00;99.90;;;;;;5118630;28;19952;-68
2024/01/15 12:18:17;;;;;;;;;;;-1.00;99.90;;;;;;5121237;28;20218;-70
2024/01/15 12:20:46;;;;;;;;;;;-1.00;99.90;;;;;;5123183;28;20519;-69
2024/01/15 12:23:15;;;;;;;;;;;-1.00;99.90;;;;;;5123523;28;19923;-68
2024/01/15 12:25:41;;;;;;;;;;;-1.00;99.90;;;;;;5122798;28;19961;-68
2024/01/15 12:28:08;;;;;;;;;;;-1.10;99.90;;;;;;5123359;28;19920;-70
2024/01/15 12:30:37;;;;;;;;;;;-1.00;99.90;;;;;;5123303;28;19926;-69
2024/01/15 12:33:04;;;;;;;;;;;-1.10;99.90;;;;;;5127213;28;19926;-69
2024/01/15 12:35:31;;;;;;;;;;;-1.00;99.90;;;;;;5126989;28;19919;-69
2024/01/15 12:37:58;;;;;;;;;;;-1.10;99.90;;;;;;5126612;28;20268;-69
2024/01/15 12:40:25;;;;;;;;;;;-1.10;99.90;;;;;;5126882;28;19962;-72
2024/01/15 12:42:52;;;;;;;;;;;-1.00;99.90;;;;;;5124615;28;19958;-68
2024/01/15 12:45:19;;;;;;;;;;;-1.00;99.90;;;;;;5121925;28;19920;-68
2024/01/15 12:47:46;;;;;;;;;;;-1.00;99.90;;;;;;5116797;28;19958;-69
2024/01/15 12:50:13;;;;;;;;;;;-1.00;99.90;;;;;;5119709;28;19947;-68
2024/01/15 12:52:41;;;;;;;;;;;-1.00;99.90;;;;;;5119412;28;19962;-68
2024/01/15 12:55:09;;;;;;;;;;;-1.10;99.90;;;;;;5116684;28;20232;-70
2024/01/15 12:57:37;;;;;;;;;;;-1.10;99.90;;;;;;5123477;28;19927;-68
2024/01/15 13:00:06;;;;;;;;;;;-1.00;99.90;;;;;;5122233;28;20173;-68
2024/01/15 13:02:33;;;;;;;;;;;-1.10;99.90;;;;;;5120313;28;20120;-69
2024/01/15 13:05:00;;;;;;;;;;;-1.10;99.90;;;;;;5116102;28;19958;-69
2024/01/15 13:07:27;;;;;;;;;;;-1.10;99.90;;;;;;5122133;28;19920;-68
2024/01/15 13:09:53;;;;;;;;;;;-1.10;99.90;;;;;;5126506;28;19919;-68
2024/01/15 13:12:20;;;;;;;;;;;-1.00;99.90;;;;;;5126622;28;19927;-68
2024/01/15 13:14:48;;;;;;;;;;;-1.10;99.90;;;;;;5126255;28;19920;-69
2024/01/15 13:17:15;;;;;;;;;;;-1.10;99.90;;;;;;5124752;28;19955;-68
2024/01/15 13:19:41;;;;;;;;;;;-1.00;99.90;;;;;;5120710;28;19919;-68
2024/01/15 13:22:09;;;;;;;;;;;-1.00;99.90;;;;;;5124351;28;19982;-69
2024/01/15 13:24:35;;;;;;;;;;;-1.00;99.90;;;;;;5121394;28;19920;-68
2024/01/15 13:27:02;;;;;;;;;;;-1.10;99.90;;;;;;5115690;28;19920;-71
2024/01/15 13:29:29;;;;;;;;;;;-1.10;99.90;;;;;;5114152;28;19919;-68
2024/01/15 13:31:57;;;;;;;;;;;-1.10;99.90;;;;;;5121605;28;19970;-68
2024/01/15 13:34:24;;;;;;;;;;;-1.10;99.90;;;;;;5122124;28;19979;-69
2024/01/15 13:36:50;;;;;;;;;;;-1.10;99.90;;;;;;5121516;28;19924;-69
2024/01/15 13:39:19;;;;;;;;;;;-1.10;99.90;;;;;;5124748;28;19963;-69
2024/01/15 13:41:46;;;;;;;;;;;-1.10;99.90;;;;;;5126096;28;19926;-68
2024/01/15 13:44:13;;;;;;;;;;;-1.10;99.90;;;;;;5124780;28;19919;-68
2024/01/15 13:46:40;;;;;;;;;;;-1.10;99.90;;;;;;5126015;28;19955;-68
2024/01/15 13:49:09;;;;;;;;;;;-1.00;99.90;;;;;;5125593;28;19979;-69
2024/01/15 13:51:36;;;;;;;;;;;-1.00;99.90;;;;;;5125717;28;19969;-68
2024/01/15 13:54:04;;;;;;;;;;;-1.00;99.90;;;;;;5123440;28;20201;-68
2024/01/15 13:56:32;;;;;;;;;;;-1.00;99.90;;;;;;5122462;28;20217;-69
2024/01/15 13:58:59;;;;;;;;;;;-1.00;99.90;;;;;;5125621;28;19919;-68
2024/01/15 14:01:26;;;;;;;;;;;-0.90;99.90;;;;;;5125439;28;19926;-69
2024/01/15 14:03:52;;;;;;;;;;;-1.00;99.90;;;;;;5124937;28;19983;-67
2024/01/15 14:06:20;;;;;;;;;;;-0.90;99.90;;;;;;5121252;28;19919;-68
2024/01/15 14:08:47;;;;;;;;;;;-1.00;99.90;;;;;;5125431;28;20005;-68
2024/01/15 14:11:13;;;;;;;;;;;-0.90;99.90;;;;;;5125146;28;20236;-71
2024/01/15 14:13:40;;;;;;;;;;;-0.90;99.90;;;;;;5125863;28;19979;-69